Time;durP1;ratioP1;P1;durP2;ratioP2;P2;SDS_P1;SDS_P2;PMS_P1;PMS_P2;Temp;Humidity;BMP_temperature;BMP_pressure;BME280_temperature;BME280_humidity;BME280_pressure;Samples;Min_cycle;Max_cycle;Signal;HPM_P1;HPM_P2
2021/05/01 00:00:43;;;;;;;10.13;4.68;;;;;;;16.74;64.99;99858.00;5028164;28;20400;-68
2021/05/01 00:03:10;;;;;;;8.88;4.90;;;;;;;16.62;65.80;99859.81;5029202;28;20056;-68
2021/05/01 00:05:36;;;;;;;6.40;5.10;;;;;;;16.56;65.88;99851.56;5028189;28;20057;-69
2021/05/01 00:08:03;;;;;;;8.98;4.78;;;;;;;16.60;65.64;99861.72;5028688;28;20053;-69
2021/05/01 00:10:30;;;;;;;7.10;6.20;;;;;;;16.77;64.65;99855.94;5028656;28;20068;-69
2021/05/01 00:12:57;;;;;;;6.93;5.40;;;;;;;16.85;64.07;99857.13;5028619;28;20516;-70
2021/05/01 00:15:24;;;;;;;8.20;5.85;;;;;;;16.84;63.85;99860.72;5028053;28;20099;-69
2021/05/01 00:17:50;;;;;;;7.07;4.68;;;;;;;16.80;63.93;99867.19;5028781;28;20069;-69
2021/05/01 00:20:17;;;;;;;7.63;5.80;;;;;;;16.76;64.11;99872.69;5010596;28;20171;-69
2021/05/01 00:22:43;;;;;;;9.90;5.40;;;;;;;16.55;65.00;99871.78;5028895;28;20400;-69
2021/05/01 00:25:10;;;;;;;10.38;6.65;;;;;;;16.65;64.39;99872.69;5028810;28;20038;-69
2021/05/01 00:27:37;;;;;;;7.82;4.82;;;;;;;16.60;64.98;99874.03;5027587;28;20120;-69
2021/05/01 00:30:05;;;;;;;8.52;6.20;;;;;;;16.48;65.73;99870.59;5028468;28;21087;-69
2021/05/01 00:32:33;;;;;;;13.35;5.97;;;;;;;16.45;65.67;99876.09;5028074;28;21444;-69
2021/05/01 00:35:01;;;;;;;11.15;7.53;;;;;;;16.47;65.44;99877.66;5028104;28;20045;-69
2021/05/01 00:37:27;;;;;;;11.27;5.60;;;;;;;16.50;65.79;99868.69;5028190;28;20136;-69
2021/05/01 00:39:54;;;;;;;8.80;7.40;;;;;;;16.43;66.22;99870.97;5027790;28;20045;-69
2021/05/01 00:42:20;;;;;;;9.98;6.80;;;;;;;16.38;66.24;99881.03;5028361;28;20488;-69
2021/05/01 00:44:46;;;;;;;9.35;6.85;;;;;;;16.39;66.52;99877.44;5028019;28;20050;-69
2021/05/01 00:47:13;;;;;;;10.95;7.65;;;;;;;16.28;67.26;99882.72;5027834;28;20091;-69
2021/05/01 00:49:40;;;;;;;14.98;7.38;;;;;;;16.33;67.27;99880.56;5028045;28;20053;-69
2021/05/01 00:52:07;;;;;;;13.45;8.95;;;;;;;16.47;66.72;99879.47;5027593;28;20542;-69
2021/05/01 00:54:34;;;;;;;10.45;9.23;;;;;;;16.55;66.45;99877.03;5028006;28;20037;-69
2021/05/01 00:57:00;;;;;;;11.75;9.32;;;;;;;16.47;67.13;99868.94;5027497;28;20042;-69
2021/05/01 00:59:27;;;;;;;12.40;8.70;;;;;;;16.42;67.81;99874.56;5026791;28;20041;-69
2021/05/01 01:01:55;;;;;;;15.07;9.02;;;;;;;16.35;68.34;99875.16;5028193;28;20054;-69
2021/05/01 01:04:22;;;;;;;12.07;8.52;;;;;;;16.38;68.31;99877.56;5027488;28;20037;-69
2021/05/01 01:06:48;;;;;;;13.15;9.82;;;;;;;16.52;67.63;99876.47;5027683;28;20454;-69
2021/05/01 01:09:15;;;;;;;10.30;8.90;;;;;;;16.32;68.03;99871.00;5027119;28;20077;-69
2021/05/01 01:11:42;;;;;;;9.70;8.70;;;;;;;16.30;68.54;99872.06;5028395;28;20806;-69
2021/05/01 01:14:12;;;;;;;12.95;9.18;;;;;;;16.27;68.70;99872.31;5028784;28;20050;-69
2021/05/01 01:16:40;;;;;;;13.25;7.68;;;;;;;16.18;68.59;99866.81;5028017;28;20084;-70
2021/05/01 01:19:07;;;;;;;11.48;7.75;;;;;;;16.14;69.06;99868.03;5027319;28;20500;-70
2021/05/01 01:21:48;;;;;;;8.82;7.93;;;;;;;16.09;69.30;99864.09;5027878;28;20048;-69
2021/05/01 01:24:16;;;;;;;14.63;9.10;;;;;;;16.03;69.46;99859.31;5027307;28;20107;-69
2021/05/01 01:26:43;;;;;;;10.82;8.30;;;;;;;16.04;68.86;99861.84;5027333;28;20041;-69
2021/05/01 01:29:13;;;;;;;10.23;8.82;;;;;;;16.09;68.71;99850.97;5026916;28;20140;-70
2021/05/01 01:31:42;;;;;;;11.35;8.23;;;;;;;15.95;69.30;99850.25;5026619;28;20045;-70
2021/05/01 01:34:08;;;;;;;11.20;8.25;;;;;;;15.94;69.21;99859.09;5027191;28;20717;-70
2021/05/01 01:36:35;;;;;;;15.00;8.30;;;;;;;15.92;69.37;99860.16;5027504;28;20037;-74
2021/05/01 01:39:02;;;;;;;10.00;8.10;;;;;;;15.86;69.53;99861.47;5027099;28;20449;-74
2021/05/01 01:41:29;;;;;;;11.00;7.95;;;;;;;15.87;69.20;99864.94;5027032;28;20064;-74
2021/05/01 01:43:55;;;;;;;11.35;9.05;;;;;;;15.76;69.43;99867.56;5027976;28;20548;-74
2021/05/01 01:46:22;;;;;;;9.57;7.95;;;;;;;15.85;69.63;99880.81;5028119;28;20127;-75
2021/05/01 01:48:48;;;;;;;9.77;8.50;;;;;;;15.69;69.72;99875.09;5028097;28;20347;-79
2021/05/01 01:51:15;;;;;;;13.70;8.45;;;;;;;15.69;70.02;99873.28;5027584;28;20133;-79
2021/05/01 01:53:41;;;;;;;10.48;8.35;;;;;;;15.79;69.49;99883.09;5027054;28;20040;-79
2021/05/01 01:56:08;;;;;;;12.35;9.20;;;;;;;15.73;69.91;99873.91;5026010;28;20045;-79
2021/05/01 01:58:34;;;;;;;9.75;8.75;;;;;;;15.57;70.53;99876.00;5026606;28;20061;-78
2021/05/01 02:01:00;;;;;;;14.77;8.60;;;;;;;15.62;70.37;99882.56;5027790;28;20412;-78
2021/05/01 02:03:27;;;;;;;9.73;8.70;;;;;;;15.69;69.97;99886.44;5027084;28;20392;-76
2021/05/01 02:05:53;;;;;;;9.32;8.27;;;;;;;15.46;71.10;99882.91;5026653;28;20041;-76
2021/05/01 02:08:20;;;;;;;12.45;10.52;;;;;;;15.38;71.07;99876.56;5026217;28;20041;-76
2021/05/01 02:10:46;;;;;;;14.10;9.07;;;;;;;15.53;70.64;99871.94;5026577;28;20045;-75
2021/05/01 02:13:13;;;;;;;10.43;9.18;;;;;;;15.45;70.91;99870.72;5027551;28;20120;-75
2021/05/01 02:15:39;;;;;;;13.10;10.63;;;;;;;15.54;70.88;99861.28;5025908;28;20404;-73
2021/05/01 02:18:06;;;;;;;11.18;9.38;;;;;;;15.48;71.03;99863.56;5026722;28;20112;-74
2021/05/01 02:20:37;;;;;;;13.52;9.88;;;;;;;15.38;71.36;99853.75;5026242;28;20045;-73
2021/05/01 02:23:05;;;;;;;12.60;10.55;;;;;;;15.32;71.67;99850.75;5026047;28;20069;-74
2021/05/01 02:25:33;;;;;;;11.48;9.55;;;;;;;15.31;71.78;99844.69;5026186;28;20104;-73
2021/05/01 02:28:00;;;;;;;13.32;9.98;;;;;;;15.29;71.97;99841.34;5026862;28;20065;-73
2021/05/01 02:30:28;;;;;;;23.45;12.30;;;;;;;15.28;71.63;99838.81;5026395;28;20073;-73
2021/05/01 02:32:56;;;;;;;16.65;11.35;;;;;;;15.36;71.78;99839.06;5025933;28;20037;-74
2021/05/01 02:35:25;;;;;;;12.68;10.95;;;;;;;15.34;71.90;99836.56;5026259;28;20132;-73
2021/05/01 02:37:52;;;;;;;13.90;11.70;;;;;;;15.46;71.42;99846.13;5026895;28;20047;-73
2021/05/01 02:40:20;;;;;;;13.60;10.18;;;;;;;15.41;71.61;99832.53;5027369;28;20168;-73
2021/05/01 02:42:48;;;;;;;14.48;11.18;;;;;;;15.27;72.17;99834.50;5027315;28;20471;-74
2021/05/01 02:45:17;;;;;;;23.90;12.63;;;;;;;15.11;72.93;99833.03;5026091;28;20041;-74
2021/05/01 02:47:44;;;;;;;14.73;11.07;;;;;;;15.11;72.67;99835.66;5026744;28;20120;-74
2021/05/01 02:50:11;;;;;;;12.27;10.88;;;;;;;15.20;72.40;99840.25;5026229;28;20403;-74
2021/05/01 02:52:38;;;;;;;14.82;10.70;;;;;;;15.10;72.97;99847.13;5024612;28;20083;-75
2021/05/01 02:55:06;;;;;;;13.68;11.88;;;;;;;15.07;73.18;99854.38;5026351;28;20858;-74
2021/05/01 02:57:32;;;;;;;13.57;11.35;;;;;;;15.10;72.43;99855.00;5025511;28;20162;-74
2021/05/01 03:00:02;;;;;;;28.35;11.18;;;;;;;15.09;72.57;99858.59;5025857;28;20065;-72
2021/05/01 03:02:30;;;;;;;14.68;10.68;;;;;;;14.98;72.86;99849.84;5026480;28;20435;-73
2021/05/01 03:04:58;;;;;;;14.38;10.98;;;;;;;15.02;72.53;99849.50;5025939;28;20152;-72
2021/05/01 03:07:24;;;;;;;13.18;10.45;;;;;;;15.10;72.89;99848.91;5025532;28;20072;-73
2021/05/01 03:09:51;;;;;;;12.07;10.40;;;;;;;14.96;73.25;99849.09;5025511;28;20559;-73
2021/05/01 03:12:18;;;;;;;11.60;10.40;;;;;;;14.83;73.43;99842.16;5025918;28;20536;-73
2021/05/01 03:14:47;;;;;;;14.40;10.18;;;;;;;15.10;72.29;99833.16;5025604;28;20042;-72
2021/05/01 03:17:14;;;;;;;12.82;9.98;;;;;;;14.97;73.16;99840.28;5025803;28;20109;-70
2021/05/01 03:19:42;;;;;;;14.73;11.40;;;;;;;15.03;72.46;99845.94;5025456;28;20045;-71
2021/05/01 03:22:09;;;;;;;13.73;11.65;;;;;;;14.85;73.71;99847.28;5025876;28;20038;-71
2021/05/01 03:24:37;;;;;;;15.52;11.55;;;;;;;14.89;73.33;99840.84;5023482;28;20037;-71
2021/05/01 03:27:04;;;;;;;16.75;11.65;;;;;;;14.74;74.13;99844.59;5025227;28;20034;-71
2021/05/01 03:29:31;;;;;;;13.88;12.30;;;;;;;14.75;73.87;99848.91;5024201;28;20037;-71
2021/05/01 03:31:57;;;;;;;14.48;12.70;;;;;;;14.70;73.57;99853.66;5026305;28;20096;-71
2021/05/01 03:34:24;;;;;;;12.40;10.23;;;;;;;14.74;73.97;99862.97;5030356;28;20060;-71
2021/05/01 03:36:50;;;;;;;11.52;9.82;;;;;;;14.83;73.55;99857.91;5030377;28;20087;-71
2021/05/01 03:39:17;;;;;;;13.55;10.15;;;;;;;14.80;73.30;99857.28;5029939;28;20104;-72
2021/05/01 03:41:44;;;;;;;13.80;10.02;;;;;;;14.83;72.49;99857.91;5029306;28;20061;-72
2021/05/01 03:44:11;;;;;;;10.93;9.82;;;;;;;14.80;73.89;99857.28;5029855;28;20046;-72
2021/05/01 03:46:38;;;;;;;16.15;10.70;;;;;;;14.64;73.87;99853.16;5029612;28;20488;-72
2021/05/01 03:49:05;;;;;;;15.40;10.20;;;;;;;14.68;73.74;99853.78;5028704;28;20099;-72
2021/05/01 03:51:32;;;;;;;12.80;9.98;;;;;;;14.64;73.86;99861.00;5028883;28;20104;-72
2021/05/01 03:53:58;;;;;;;13.55;10.85;;;;;;;14.71;73.52;99845.69;5029671;28;20041;-72
2021/05/01 03:56:25;;;;;;;17.10;11.38;;;;;;;14.72;73.25;99843.91;5029025;28;20156;-72
2021/05/01 03:58:51;;;;;;;16.23;11.35;;;;;;;14.66;73.26;99845.19;5028790;28;20100;-72
2021/05/01 04:01:18;;;;;;;14.18;11.90;;;;;;;14.58;73.45;99853.59;5028734;28;20061;-76
2021/05/01 04:03:45;;;;;;;13.77;10.38;;;;;;;14.68;73.07;99853.78;5029590;28;20072;-76
2021/05/01 04:06:11;;;;;;;13.85;11.98;;;;;;;14.50;73.68;99855.97;5027327;28;20343;-75
2021/05/01 04:08:38;;;;;;;12.45;10.60;;;;;;;14.50;74.23;99861.19;5028731;28;20073;-73
2021/05/01 04:11:05;;;;;;;14.70;10.80;;;;;;;14.55;73.82;99853.00;5028930;28;20492;-74
2021/05/01 04:13:32;;;;;;;15.13;11.55;;;;;;;14.44;74.16;99852.91;5028400;28;20041;-76
2021/05/01 04:15:59;;;;;;;14.82;11.73;;;;;;;14.69;73.15;99860.69;5028782;28;20112;-74
2021/05/01 04:18:26;;;;;;;12.02;9.90;;;;;;;14.72;72.96;99870.13;5028195;28;20484;-75
2021/05/01 04:20:52;;;;;;;13.07;10.32;;;;;;;14.66;74.09;99866.19;5035883;28;20049;-71
2021/05/01 04:23:19;;;;;;;13.18;10.80;;;;;;;14.64;74.09;99873.31;5043463;28;20095;-70
2021/05/01 04:25:45;;;;;;;14.13;11.88;;;;;;;14.60;74.29;99861.38;5044729;28;20037;-71
2021/05/01 04:28:11;;;;;;;13.52;10.88;;;;;;;14.67;74.40;99863.44;5037064;28;20042;-74
2021/05/01 04:30:38;;;;;;;16.13;10.70;;;;;;;14.66;74.76;99866.19;5039239;28;20049;-74
2021/05/01 04:33:09;;;;;;;20.17;10.50;;;;;;;14.60;75.11;99871.88;5038847;28;20052;-73
2021/05/01 04:35:36;;;;;;;16.83;12.13;;;;;;;14.75;74.57;99877.75;5035336;28;20103;-70
2021/05/01 04:38:02;;;;;;;14.80;10.45;;;;;;;14.74;74.83;99886.59;5043483;28;20065;-71
2021/05/01 04:40:29;;;;;;;14.50;8.75;;;;;;;14.81;73.48;99896.53;5047420;28;20045;-70
2021/05/01 04:43:00;;;;;;;12.30;7.72;;;;;;;14.78;73.97;99891.50;5033338;28;20104;-72
2021/05/01 04:45:26;;;;;;;15.80;9.32;;;;;;;15.03;72.01;99893.19;5031999;28;20048;-73
2021/05/01 04:47:53;;;;;;;11.30;9.88;;;;;;;15.03;72.05;99908.09;5033138;28;20117;-73
2021/05/01 04:50:20;;;;;;;10.35;9.32;;;;;;;14.93;72.81;99902.66;5033729;28;20045;-73
2021/05/01 04:52:52;;;;;;;22.42;10.77;;;;;;;14.76;73.71;99895.22;5015861;28;20041;-74
2021/05/01 04:55:20;;;;;;;14.23;11.07;;;;;;;14.79;74.31;99897.59;5016404;28;20049;-74
2021/05/01 04:57:48;;;;;;;14.13;12.40;;;;;;;14.57;74.83;99890.44;5031233;28;20049;-76
2021/05/01 05:00:18;;;;;;;18.17;12.90;;;;;;;14.84;74.21;99903.34;5030677;28;20461;-75
2021/05/01 05:02:46;;;;;;;14.90;10.90;;;;;;;14.86;74.31;99904.91;5037834;28;20066;-73
2021/05/01 05:05:14;;;;;;;16.65;12.82;;;;;;;14.72;74.55;99899.81;5039434;28;20041;-75
2021/05/01 05:07:41;;;;;;;21.42;13.10;;;;;;;14.60;75.52;99909.44;5033370;28;20034;-74
2021/05/01 05:10:10;;;;;;;20.10;12.68;;;;;;;14.67;75.02;99902.78;5039253;28;20073;-72
2021/05/01 05:12:37;;;;;;;14.38;12.57;;;;;;;14.79;74.63;99902.84;5031236;28;20041;-73
2021/05/01 05:15:05;;;;;;;14.25;12.75;;;;;;;14.91;74.26;99910.66;5037663;28;20038;-76
2021/05/01 05:17:32;;;;;;;14.93;13.25;;;;;;;14.89;74.69;99909.09;5032612;28;20042;-73
2021/05/01 05:19:59;;;;;;;13.52;11.07;;;;;;;14.91;74.92;99902.78;5036142;28;20051;-72
2021/05/01 05:22:25;;;;;;;11.23;10.13;;;;;;;14.83;75.42;99894.63;5036350;28;20065;-74
2021/05/01 05:24:52;;;;;;;21.20;12.90;;;;;;;14.75;75.63;99898.75;5033609;28;20037;-76
2021/05/01 05:27:20;;;;;;;16.33;11.70;;;;;;;14.76;75.51;99897.84;5038716;28;20124;-72
2021/05/01 05:29:53;;;;;;;17.52;11.95;;;;;;;14.94;75.32;99896.47;5034006;28;20107;-69
2021/05/01 05:32:22;;;;;;;13.30;11.50;;;;;;;15.01;74.98;99896.84;5038712;28;20041;-65
2021/05/01 05:34:51;;;;;;;15.20;12.75;;;;;;;14.98;74.91;99894.47;5028308;28;20045;-64
2021/05/01 05:37:18;;;;;;;19.48;12.77;;;;;;;15.10;74.78;99891.75;5033565;28;20038;-66
2021/05/01 05:39:47;;;;;;;15.32;11.95;;;;;;;15.32;74.05;99892.78;5033461;28;20504;-65
2021/05/01 05:42:18;;;;;;;13.50;11.82;;;;;;;15.25;73.83;99894.19;5014334;28;20033;-67
2021/05/01 05:44:48;;;;;;;12.73;10.98;;;;;;;15.34;73.83;99896.13;5032838;28;20403;-67
2021/05/01 05:47:16;;;;;;;15.45;12.23;;;;;;;15.37;74.04;99893.28;5027385;28;20041;-67
2021/05/01 05:49:43;;;;;;;14.57;11.00;;;;;;;15.36;74.46;99897.69;5029435;28;20049;-66
2021/05/01 05:52:09;;;;;;;15.57;12.05;;;;;;;15.46;73.78;99887.31;5025678;28;20060;-67
2021/05/01 05:54:37;;;;;;;17.65;12.93;;;;;;;15.33;73.70;99879.53;5029786;28;20109;-70
2021/05/01 05:57:06;;;;;;;16.20;11.10;;;;;;;15.49;73.38;99873.94;5023292;28;20431;-68
2021/05/01 05:59:34;;;;;;;14.40;11.63;;;;;;;15.65;73.03;99882.34;5026043;28;20136;-67
2021/05/01 06:02:03;;;;;;;17.10;12.20;;;;;;;15.71;71.80;99876.66;5032327;28;20044;-69
2021/05/01 06:04:40;;;;;;;15.63;13.48;;;;;;;15.69;71.79;99881.16;5028321;28;20053;-69
2021/05/01 06:07:11;;;;;;;16.15;13.98;;;;;;;15.61;72.19;99880.06;5030245;28;20061;-69
2021/05/01 06:09:40;;;;;;;17.15;12.80;;;;;;;15.60;73.28;99883.63;5031088;28;20057;-68
2021/05/01 06:12:10;;;;;;;17.48;12.45;;;;;;;15.62;71.96;99872.06;5025449;28;20068;-68
2021/05/01 06:14:43;;;;;;;24.88;13.68;;;;;;;15.64;72.03;99859.66;5027876;28;20496;-67
2021/05/01 06:17:11;;;;;;;15.80;12.07;;;;;;;15.53;72.81;99864.06;5023607;28;20435;-66
2021/05/01 06:19:40;;;;;;;15.52;13.23;;;;;;;15.57;72.97;99876.00;5025431;28;20133;-67
2021/05/01 06:22:07;;;;;;;16.30;14.63;;;;;;;15.78;72.02;99882.25;5032045;28;20500;-67
2021/05/01 06:24:35;;;;;;;17.38;15.10;;;;;;;15.92;71.79;99892.53;5027903;28;20038;-67
2021/05/01 06:27:02;;;;;;;17.08;14.63;;;;;;;15.85;71.74;99893.13;5032105;28;20484;-67
2021/05/01 06:29:31;;;;;;;20.40;16.02;;;;;;;16.04;71.38;99895.19;5036906;28;20337;-69
2021/05/01 06:31:59;;;;;;;18.15;16.25;;;;;;;16.06;71.13;99886.19;5034328;28;20046;-69
2021/05/01 06:34:26;;;;;;;24.10;16.17;;;;;;;15.99;71.40;99887.66;5033719;28;20037;-67
2021/05/01 06:36:54;;;;;;;22.60;16.88;;;;;;;15.84;72.46;99880.97;5030174;28;20060;-68
2021/05/01 06:39:23;;;;;;;23.80;17.42;;;;;;;15.97;71.85;99871.16;5032154;28;20048;-70
2021/05/01 06:41:56;;;;;;;17.98;16.08;;;;;;;16.22;71.49;99886.66;5024152;28;20042;-72
2021/05/01 06:44:38;;;;;;;30.90;17.58;;;;;;;16.44;71.10;99888.41;5021562;28;20081;-67
2021/05/01 06:47:06;;;;;;;27.65;20.00;;;;;;;16.62;69.63;99886.13;5027187;28;20049;-68
2021/05/01 06:49:47;;;;;;;23.70;19.65;;;;;;;16.82;69.35;99891.59;5029188;28;20041;-72
2021/05/01 06:52:15;;;;;;;25.55;19.60;;;;;;;17.07;69.05;99903.59;5029401;28;20491;-69
2021/05/01 06:54:50;;;;;;;26.65;20.45;;;;;;;17.20;68.29;99899.78;5025807;28;20403;-71
2021/05/01 06:57:21;;;;;;;26.13;21.75;;;;;;;17.03;67.15;99905.63;5024007;28;20053;-73
2021/05/01 06:59:52;;;;;;;24.55;20.70;;;;;;;17.14;67.50;99910.00;5027551;28;20447;-72
2021/05/01 07:02:23;;;;;;;31.50;19.95;;;;;;;17.18;67.72;99900.91;5026384;28;20488;-73
2021/05/01 07:04:52;;;;;;;24.10;19.10;;;;;;;17.39;67.24;99900.91;5022611;28;20439;-73
2021/05/01 07:07:47;;;;;;;29.15;20.95;;;;;;;17.39;67.36;99903.53;5031329;28;20038;-71
2021/05/01 07:10:16;;;;;;;26.40;22.88;;;;;;;17.47;67.75;99891.41;5020218;28;20050;-73
2021/05/01 07:12:44;;;;;;;28.38;23.27;;;;;;;17.02;69.00;99885.53;5031910;28;20042;-76
2021/05/01 07:15:13;;;;;;;30.95;23.13;;;;;;;16.89;69.57;99882.25;5021953;28;20132;-72
2021/05/01 07:17:40;;;;;;;27.98;23.95;;;;;;;17.14;69.91;99881.88;5016661;28;20065;-73
2021/05/01 07:20:11;;;;;;;22.08;19.77;;;;;;;17.41;69.79;99885.78;5021933;28;20125;-70
2021/05/01 07:22:38;;;;;;;21.85;18.65;;;;;;;17.68;68.88;99888.72;5024841;28;20057;-69
2021/05/01 07:25:08;;;;;;;20.35;17.58;;;;;;;17.91;69.40;99883.34;5024052;28;20069;-70
2021/05/01 07:27:49;;;;;;;21.00;18.80;;;;;;;18.18;67.82;99888.00;5031939;28;20041;-68
2021/05/01 07:30:17;;;;;;;24.70;21.52;;;;;;;18.46;66.60;99889.06;5033494;28;20041;-68
2021/05/01 07:32:47;;;;;;;28.45;20.85;;;;;;;18.44;66.70;99880.44;5032922;28;20048;-68
2021/05/01 07:35:18;;;;;;;23.30;20.80;;;;;;;18.73;65.59;99877.88;5031634;28;20427;-68
2021/05/01 07:37:49;;;;;;;30.58;20.42;;;;;;;19.05;64.65;99872.31;5038144;28;20103;-70
2021/05/01 07:40:21;;;;;;;31.60;20.75;;;;;;;19.10;63.89;99870.91;5034318;28;20397;-70
2021/05/01 07:42:50;;;;;;;21.75;19.55;;;;;;;19.14;64.00;99866.19;5028088;28;20077;-70
2021/05/01 07:45:23;;;;;;;26.17;19.08;;;;;;;19.19;63.96;99869.25;5025180;28;20040;-70
2021/05/01 07:47:53;;;;;;;25.67;22.52;;;;;;;19.45;63.06;99851.00;5014909;28;20464;-74
2021/05/01 07:50:21;;;;;;;27.85;22.20;;;;;;;19.44;63.05;99854.63;5028461;28;20133;-69
2021/05/01 07:52:48;;;;;;;26.10;23.30;;;;;;;19.43;62.96;99852.09;5017847;28;20062;-71
2021/05/01 07:55:14;;;;;;;24.65;22.20;;;;;;;19.74;63.50;99853.56;5018848;28;20446;-69
2021/05/01 07:57:47;;;;;;;26.70;23.85;;;;;;;20.75;60.76;99853.56;5029086;28;20522;-72
2021/05/01 08:00:15;;;;;;;34.35;26.40;;;;;;;21.26;58.03;99855.50;5020849;28;20073;-73
2021/05/01 08:02:42;;;;;;;29.45;24.38;;;;;;;21.74;56.72;99848.03;5020758;28;20050;-72
2021/05/01 08:05:11;;;;;;;28.02;25.17;;;;;;;21.93;54.75;99843.28;5030174;28;20488;-71
2021/05/01 08:07:38;;;;;;;25.98;22.75;;;;;;;22.18;53.36;99841.59;5028470;28;20049;-71
2021/05/01 08:10:06;;;;;;;23.48;21.00;;;;;;;21.40;53.42;99833.72;5029761;28;20072;-73
2021/05/01 08:12:33;;;;;;;23.38;18.38;;;;;;;20.88;54.41;99831.03;5031865;28;20128;-68
2021/05/01 08:14:59;;;;;;;24.85;19.83;;;;;;;20.98;54.70;99824.78;5031725;28;20132;-71
2021/05/01 08:17:26;;;;;;;23.10;20.63;;;;;;;21.23;54.20;99821.34;5031167;28;20038;-70
2021/05/01 08:19:54;;;;;;;25.95;18.13;;;;;;;21.76;53.61;99815.03;5021553;28;20042;-69
2021/05/01 08:22:21;;;;;;;17.13;15.18;;;;;;;22.15;51.07;99811.88;5023272;28;20124;-70
2021/05/01 08:24:47;;;;;;;20.42;18.23;;;;;;;22.61;51.55;99814.97;5019822;28;20045;-73
2021/05/01 08:27:14;;;;;;;24.33;19.90;;;;;;;21.73;53.56;99825.94;5022471;28;20070;-69
2021/05/01 08:29:40;;;;;;;23.13;20.55;;;;;;;21.92;53.60;99820.41;5031010;28;20053;-72
2021/05/01 08:32:06;;;;;;;23.42;21.13;;;;;;;22.02;53.51;99814.16;5033998;28;20448;-70
2021/05/01 08:34:33;;;;;;;24.13;18.65;;;;;;;22.03;53.69;99811.31;5022757;28;20040;-72
2021/05/01 08:37:00;;;;;;;28.00;20.55;;;;;;;22.35;52.15;99800.00;5028510;28;20492;-71
2021/05/01 08:39:26;;;;;;;24.67;18.98;;;;;;;21.86;54.05;99799.81;5033337;28;20489;-70
2021/05/01 08:41:53;;;;;;;26.65;19.35;;;;;;;22.23;54.30;99806.63;5031682;28;20396;-71
2021/05/01 08:44:20;;;;;;;24.27;19.95;;;;;;;22.16;54.65;99802.97;5031031;28;20038;-69
2021/05/01 08:46:49;;;;;;;21.90;18.30;;;;;;;22.18;55.09;99812.41;5031264;28;20220;-73
2021/05/01 08:49:16;;;;;;;20.48;17.90;;;;;;;21.69;54.32;99803.41;5024324;28;20092;-67
2021/05/01 08:51:44;;;;;;;23.15;17.48;;;;;;;21.65;55.05;99804.72;5034855;28;20100;-69
2021/05/01 08:54:11;;;;;;;19.85;17.70;;;;;;;21.89;55.55;99804.84;5032152;28;20041;-72
2021/05/01 08:56:39;;;;;;;24.13;21.58;;;;;;;21.47;58.00;99802.16;5033422;28;20107;-66
2021/05/01 08:59:05;;;;;;;23.45;20.92;;;;;;;21.56;57.82;99803.81;5033011;28;21741;-64
2021/05/01 09:01:36;;;;;;;23.25;19.40;;;;;;;21.49;58.07;99796.69;5033377;28;20523;-66
2021/05/01 09:04:09;;;;;;;20.70;18.00;;;;;;;21.16;59.00;99801.75;5015852;28;20041;-66
2021/05/01 09:06:37;;;;;;;18.95;16.65;;;;;;;21.36;58.45;99787.34;5032347;28;20124;-68
2021/05/01 09:09:07;;;;;;;18.58;16.52;;;;;;;21.40;58.02;99788.66;5032885;28;20050;-65
2021/05/01 09:11:39;;;;;;;21.08;16.88;;;;;;;21.18;59.06;99789.16;5035384;28;20068;-66
2021/05/01 09:14:26;;;;;;;17.77;15.90;;;;;;;21.10;59.44;99797.06;5032272;28;20037;-65
2021/05/01 09:17:04;;;;;;;17.95;16.10;;;;;;;21.13;59.16;99792.28;5035555;28;20049;-65
2021/05/01 09:19:41;;;;;;;18.42;16.67;;;;;;;21.40;58.72;99793.13;5034452;28;20080;-66
2021/05/01 09:22:13;;;;;;;19.60;16.90;;;;;;;21.35;58.21;99785.66;5030642;28;20041;-66
2021/05/01 09:24:42;;;;;;;24.20;16.67;;;;;;;21.16;59.29;99785.84;5032459;28;20518;-65
2021/05/01 09:27:14;;;;;;;19.27;17.38;;;;;;;21.20;59.53;99789.84;5032660;28;20057;-65
2021/05/01 09:29:41;;;;;;;21.25;19.17;;;;;;;21.09;61.03;99798.03;5024652;28;20059;-66
2021/05/01 09:32:25;;;;;;;20.73;18.73;;;;;;;21.22;60.54;99798.47;5025088;28;20040;-66
2021/05/01 09:34:54;;;;;;;23.52;19.83;;;;;;;21.39;59.07;99797.59;5007096;28;20045;-71
2021/05/01 09:37:26;;;;;;;23.45;20.20;;;;;;;21.00;60.59;99802.47;5025677;28;20041;-68
2021/05/01 09:39:56;;;;;;;21.30;19.20;;;;;;;20.87;60.45;99802.84;5017976;28;20050;-68
2021/05/01 09:42:23;;;;;;;24.77;19.08;;;;;;;21.05;60.26;99789.59;5026278;28;20077;-64
2021/05/01 09:45:29;;;;;;;21.13;18.05;;;;;;;21.08;59.04;99799.03;5034333;28;20145;-64
2021/05/01 09:47:56;;;;;;;23.58;18.55;;;;;;;20.65;61.16;99798.84;5024529;28;20515;-67
2021/05/01 09:50:25;;;;;;;22.98;19.08;;;;;;;20.63;61.19;99792.06;5031556;28;20052;-68
2021/05/01 09:53:05;;;;;;;18.83;16.83;;;;;;;20.84;60.08;99787.28;5028135;28;20191;-68
2021/05/01 09:55:54;;;;;;;20.63;18.65;;;;;;;20.60;61.51;99779.13;5032468;28;20120;-67
2021/05/01 09:58:22;;;;;;;21.05;18.58;;;;;;;20.41;60.69;99762.38;5032038;28;20049;-67
2021/05/01 10:00:50;;;;;;;26.77;21.10;;;;;;;20.59;61.33;99757.09;5031374;28;20049;-68
2021/05/01 10:03:26;;;;;;;20.98;18.85;;;;;;;20.66;60.99;99757.31;5012384;28;20041;-68
2021/05/01 10:05:58;;;;;;;26.73;20.05;;;;;;;20.75;61.40;99767.00;5032301;28;20120;-69
2021/05/01 10:08:32;;;;;;;24.52;21.88;;;;;;;20.51;61.13;99764.16;5032675;28;20087;-68
2021/05/01 10:11:10;;;;;;;28.58;20.58;;;;;;;20.33;61.61;99766.75;5032574;28;20099;-69
2021/05/01 10:13:47;;;;;;;;;;;;;;;20.32;61.94;99743.94;5038534;28;20408;-69
2021/05/01 10:16:14;;;;;;;26.20;23.02;;;;;;;20.53;61.57;99741.00;5028343;28;19928;-70
2021/05/01 10:19:04;;;;;;;25.50;22.88;;;;;;;20.59;63.01;99748.31;5032131;28;20077;-70
2021/05/01 10:21:31;;;;;;;23.38;21.08;;;;;;;20.72;60.82;99740.84;5029157;28;20053;-69
2021/05/01 10:23:57;;;;;;;25.20;22.80;;;;;;;20.48;62.66;99743.28;5031065;28;20042;-69
2021/05/01 10:26:24;;;;;;;23.25;21.05;;;;;;;20.21;63.31;99738.88;5030365;28;20069;-71
2021/05/01 10:28:56;;;;;;;29.42;23.45;;;;;;;19.87;65.00;99727.13;5029985;28;20041;-70
2021/05/01 10:31:23;;;;;;;23.70;21.38;;;;;;;20.12;64.34;99727.34;5034198;28;20142;-69
2021/05/01 10:33:51;;;;;;;22.85;20.13;;;;;;;20.29;63.47;99723.03;5039150;28;20566;-68
2021/05/01 10:36:26;;;;;;;24.98;22.55;;;;;;;20.24;63.97;99715.59;5043265;28;20083;-69
2021/05/01 10:38:58;;;;;;;25.25;22.67;;;;;;;20.38;63.48;99715.03;5043641;28;20060;-69
2021/05/01 10:41:25;;;;;;;21.13;19.13;;;;;;;20.59;62.75;99704.16;5031904;28;20107;-67
2021/05/01 10:43:56;;;;;;;24.48;19.45;;;;;;;20.60;62.82;99697.84;5033157;28;20053;-67
2021/05/01 10:46:30;;;;;;;22.65;20.08;;;;;;;20.59;62.84;99688.25;5040040;28;20041;-67
2021/05/01 10:48:58;;;;;;;23.05;20.20;;;;;;;20.75;62.19;99687.53;5037522;28;20060;-68
2021/05/01 10:51:27;;;;;;;22.50;20.30;;;;;;;20.80;62.01;99689.72;5038802;28;20407;-67
2021/05/01 10:54:22;;;;;;;23.58;21.35;;;;;;;20.62;61.69;99685.31;5041267;28;20539;-68
2021/05/01 10:56:51;;;;;;;23.58;20.27;;;;;;;20.37;62.24;99686.91;5037790;28;20048;-67
2021/05/01 10:59:30;;;;;;;22.13;19.70;;;;;;;20.47;62.82;99689.50;5030631;28;20042;-67
2021/05/01 11:02:00;;;;;;;21.88;18.27;;;;;;;20.68;62.05;99683.84;5031379;28;20579;-67
2021/05/01 11:04:31;;;;;;;20.33;18.25;;;;;;;20.82;61.81;99685.91;5027056;28;20033;-66
2021/05/01 11:07:03;;;;;;;23.13;19.15;;;;;;;20.74;61.88;99675.28;5031642;28;20067;-66
2021/05/01 11:09:43;;;;;;;19.63;17.38;;;;;;;20.78;60.57;99684.59;5024823;28;20091;-71
2021/05/01 11:12:17;;;;;;;20.77;17.00;;;;;;;20.79;62.28;99680.13;5030304;28;20038;-70
2021/05/01 11:14:49;;;;;;;21.13;17.83;;;;;;;20.83;60.88;99670.88;5032050;28;20041;-71
2021/05/01 11:17:36;;;;;;;20.55;18.38;;;;;;;21.01;60.59;99661.03;5031345;28;20049;-71
2021/05/01 11:20:14;;;;;;;17.38;15.65;;;;;;;21.04;60.50;99667.81;5030339;28;20055;-72
2021/05/01 11:22:43;;;;;;;18.35;16.50;;;;;;;20.81;60.15;99649.81;5022818;28;20496;-71
2021/05/01 11:25:16;;;;;;;20.08;16.20;;;;;;;20.83;59.72;99639.09;5023831;28;20519;-72
2021/05/01 11:27:46;;;;;;;18.10;15.75;;;;;;;20.83;60.46;99621.38;5010858;28;20049;-71